sensor_id;sensor_type;location;lat;lon;timestamp;temperature;humidity
3842;DHT22;1936;47.074;15.336;2023-05-27T00:00:43;14.30;79.60
3842;DHT22;1936;47.074;15.336;2023-05-27T00:02:47;14.30;79.50
3842;DHT22;1936;47.074;15.336;2023-05-27T00:04:52;14.20;80.20
3842;DHT22;1936;47.074;15.336;2023-05-27T00:06:55;14.20;80.10
3842;DHT22;1936;47.074;15.336;2023-05-27T00:08:58;14.20;80.20
3842;DHT22;1936;47.074;15.336;2023-05-27T00:11:02;14.10;80.00
3842;DHT22;1936;47.074;15.336;2023-05-27T00:13:05;14.20;80.10
3842;DHT22;1936;47.074;15.336;2023-05-27T00:15:10;14.00;80.20
3842;DHT22;1936;47.074;15.336;2023-05-27T00:17:13;14.20;80.50
3842;DHT22;1936;47.074;15.336;2023-05-27T00:19:17;14.20;80.20
3842;DHT22;1936;47.074;15.336;2023-05-27T00:21:21;14.20;80.10
3842;DHT22;1936;47.074;15.336;2023-05-27T00:23:25;14.20;80.10
3842;DHT22;1936;47.074;15.336;2023-05-27T00:25:28;14.20;80.90
3842;DHT22;1936;47.074;15.336;2023-05-27T00:27:33;14.20;82.00
3842;DHT22;1936;47.074;15.336;2023-05-27T00:29:37;14.20;81.30
3842;DHT22;1936;47.074;15.336;2023-05-27T00:31:40;14.20;81.90
3842;DHT22;1936;47.074;15.336;2023-05-27T00:33:44;14.20;82.80
3842;DHT22;1936;47.074;15.336;2023-05-27T00:35:47;14.30;81.80
3842;DHT22;1936;47.074;15.336;2023-05-27T00:37:52;14.30;82.40
3842;DHT22;1936;47.074;15.336;2023-05-27T00:39:55;14.30;83.10
3842;DHT22;1936;47.074;15.336;2023-05-27T00:42:00;14.40;82.10
3842;DHT22;1936;47.074;15.336;2023-05-27T00:44:04;14.50;81.50
3842;DHT22;1936;47.074;15.336;2023-05-27T00:46:07;14.50;81.30
3842;DHT22;1936;47.074;15.336;2023-05-27T00:48:11;14.40;81.70
3842;DHT22;1936;47.074;15.336;2023-05-27T00:50:17;14.40;81.10
3842;DHT22;1936;47.074;15.336;2023-05-27T00:52:21;14.40;80.90
3842;DHT22;1936;47.074;15.336;2023-05-27T00:54:26;14.40;80.70
3842;DHT22;1936;47.074;15.336;2023-05-27T00:56:30;14.40;81.10
3842;DHT22;1936;47.074;15.336;2023-05-27T00:58:34;14.30;81.40
3842;DHT22;1936;47.074;15.336;2023-05-27T01:00:37;14.20;81.50
3842;DHT22;1936;47.074;15.336;2023-05-27T01:02:41;14.20;81.40
3842;DHT22;1936;47.074;15.336;2023-05-27T01:04:46;14.10;82.00
3842;DHT22;1936;47.074;15.336;2023-05-27T01:06:58;14.00;81.60
3842;DHT22;1936;47.074;15.336;2023-05-27T01:09:06;14.00;81.70
3842;DHT22;1936;47.074;15.336;2023-05-27T01:11:12;13.90;81.90
3842;DHT22;1936;47.074;15.336;2023-05-27T01:13:27;13.80;82.00
3842;DHT22;1936;47.074;15.336;2023-05-27T01:15:34;13.80;81.80
3842;DHT22;1936;47.074;15.336;2023-05-27T01:17:38;13.70;81.90
3842;DHT22;1936;47.074;15.336;2023-05-27T01:19:45;13.70;82.30
3842;DHT22;1936;47.074;15.336;2023-05-27T01:21:48;13.50;83.00
3842;DHT22;1936;47.074;15.336;2023-05-27T01:23:54;13.40;83.10
3842;DHT22;1936;47.074;15.336;2023-05-27T01:26:05;13.50;83.30
3842;DHT22;1936;47.074;15.336;2023-05-27T01:28:08;13.40;83.30
3842;DHT22;1936;47.074;15.336;2023-05-27T01:30:12;13.30;82.90
3842;DHT22;1936;47.074;15.336;2023-05-27T01:32:20;13.30;83.10
3842;DHT22;1936;47.074;15.336;2023-05-27T01:34:30;13.30;83.00
3842;DHT22;1936;47.074;15.336;2023-05-27T01:36:40;13.20;83.40
3842;DHT22;1936;47.074;15.336;2023-05-27T01:38:46;13.10;83.90
3842;DHT22;1936;47.074;15.336;2023-05-27T01:40:53;13.00;84.40
3842;DHT22;1936;47.074;15.336;2023-05-27T01:42:58;13.00;84.30
3842;DHT22;1936;47.074;15.336;2023-05-27T01:45:03;13.10;83.80
3842;DHT22;1936;47.074;15.336;2023-05-27T01:47:08;13.30;83.50
3842;DHT22;1936;47.074;15.336;2023-05-27T01:49:11;13.40;87.60
3842;DHT22;1936;47.074;15.336;2023-05-27T01:51:15;13.00;83.00
3842;DHT22;1936;47.074;15.336;2023-05-27T01:53:19;13.10;84.40
3842;DHT22;1936;47.074;15.336;2023-05-27T01:55:22;13.00;84.70
3842;DHT22;1936;47.074;15.336;2023-05-27T01:57:27;12.90;85.60
3842;DHT22;1936;47.074;15.336;2023-05-27T01:59:31;13.00;85.00
3842;DHT22;1936;47.074;15.336;2023-05-27T02:01:34;12.90;84.30
3842;DHT22;1936;47.074;15.336;2023-05-27T02:05:42;12.70;83.90
3842;DHT22;1936;47.074;15.336;2023-05-27T02:07:46;12.90;84.30
3842;DHT22;1936;47.074;15.336;2023-05-27T02:09:50;12.80;84.20
3842;DHT22;1936;47.074;15.336;2023-05-27T02:11:53;12.70;84.30
3842;DHT22;1936;47.074;15.336;2023-05-27T02:13:58;12.70;84.30
3842;DHT22;1936;47.074;15.336;2023-05-27T02:16:03;12.70;84.60
3842;DHT22;1936;47.074;15.336;2023-05-27T02:18:06;12.60;84.80
3842;DHT22;1936;47.074;15.336;2023-05-27T02:20:11;12.60;84.80
3842;DHT22;1936;47.074;15.336;2023-05-27T02:22:15;12.50;85.80
3842;DHT22;1936;47.074;15.336;2023-05-27T02:24:18;12.70;95.30
3842;DHT22;1936;47.074;15.336;2023-05-27T02:26:22;12.80;98.40
3842;DHT22;1936;47.074;15.336;2023-05-27T02:28:25;12.70;95.70
3842;DHT22;1936;47.074;15.336;2023-05-27T02:30:30;12.70;95.20
3842;DHT22;1936;47.074;15.336;2023-05-27T02:32:33;12.70;92.60
3842;DHT22;1936;47.074;15.336;2023-05-27T02:34:37;12.70;94.50
3842;DHT22;1936;47.074;15.336;2023-05-27T02:36:42;12.60;96.00
3842;DHT22;1936;47.074;15.336;2023-05-27T02:38:47;12.70;95.70
3842;DHT22;1936;47.074;15.336;2023-05-27T02:40:50;12.60;96.30
3842;DHT22;1936;47.074;15.336;2023-05-27T02:42:54;12.30;96.60
3842;DHT22;1936;47.074;15.336;2023-05-27T02:44:58;12.30;90.40
3842;DHT22;1936;47.074;15.336;2023-05-27T02:47:03;12.40;91.20
3842;DHT22;1936;47.074;15.336;2023-05-27T02:49:06;12.40;91.70
3842;DHT22;1936;47.074;15.336;2023-05-27T02:51:10;12.40;91.90
3842;DHT22;1936;47.074;15.336;2023-05-27T02:53:13;12.50;92.10
3842;DHT22;1936;47.074;15.336;2023-05-27T02:55:17;12.40;92.00
3842;DHT22;1936;47.074;15.336;2023-05-27T02:57:20;12.40;92.20
3842;DHT22;1936;47.074;15.336;2023-05-27T02:59:23;12.40;92.30
3842;DHT22;1936;47.074;15.336;2023-05-27T03:01:27;12.40;92.40
3842;DHT22;1936;47.074;15.336;2023-05-27T03:03:32;12.40;92.40
3842;DHT22;1936;47.074;15.336;2023-05-27T03:05:35;12.40;92.50
3842;DHT22;1936;47.074;15.336;2023-05-27T03:07:39;12.40;92.60
3842;DHT22;1936;47.074;15.336;2023-05-27T03:09:43;12.40;92.50
3842;DHT22;1936;47.074;15.336;2023-05-27T03:11:46;12.30;92.50
3842;DHT22;1936;47.074;15.336;2023-05-27T03:13:49;12.30;92.70
3842;DHT22;1936;47.074;15.336;2023-05-27T03:15:53;12.30;92.70
3842;DHT22;1936;47.074;15.336;2023-05-27T03:17:58;12.30;92.90
3842;DHT22;1936;47.074;15.336;2023-05-27T03:20:03;12.30;93.10
3842;DHT22;1936;47.074;15.336;2023-05-27T03:22:09;12.20;93.10
3842;DHT22;1936;47.074;15.336;2023-05-27T03:24:13;12.30;93.00
3842;DHT22;1936;47.074;15.336;2023-05-27T03:26:16;12.30;93.30
3842;DHT22;1936;47.074;15.336;2023-05-27T03:28:19;12.30;93.00
3842;DHT22;1936;47.074;15.336;2023-05-27T03:30:22;12.30;93.00
3842;DHT22;1936;47.074;15.336;2023-05-27T03:32:26;12.30;93.00
3842;DHT22;1936;47.074;15.336;2023-05-27T03:34:29;12.20;92.80
3842;DHT22;1936;47.074;15.336;2023-05-27T03:36:34;12.20;93.40
3842;DHT22;1936;47.074;15.336;2023-05-27T03:38:39;12.20;90.40
3842;DHT22;1936;47.074;15.336;2023-05-27T03:40:42;12.20;89.40
3842;DHT22;1936;47.074;15.336;2023-05-27T03:42:45;12.10;90.50
3842;DHT22;1936;47.074;15.336;2023-05-27T03:44:49;12.00;90.70
3842;DHT22;1936;47.074;15.336;2023-05-27T03:46:52;12.00;90.90
3842;DHT22;1936;47.074;15.336;2023-05-27T03:48:56;12.10;89.70
3842;DHT22;1936;47.074;15.336;2023-05-27T03:50:59;12.20;88.40
3842;DHT22;1936;47.074;15.336;2023-05-27T03:53:04;12.20;87.50
3842;DHT22;1936;47.074;15.336;2023-05-27T03:55:08;12.20;87.40
3842;DHT22;1936;47.074;15.336;2023-05-27T03:57:12;12.30;87.50
3842;DHT22;1936;47.074;15.336;2023-05-27T03:59:15;12.40;88.60
3842;DHT22;1936;47.074;15.336;2023-05-27T04:01:19;12.40;90.00
3842;DHT22;1936;47.074;15.336;2023-05-27T04:03:25;12.40;90.40
3842;DHT22;1936;47.074;15.336;2023-05-27T04:05:29;12.40;90.40
3842;DHT22;1936;47.074;15.336;2023-05-27T04:07:33;12.50;90.30
3842;DHT22;1936;47.074;15.336;2023-05-27T04:09:37;12.50;90.30
3842;DHT22;1936;47.074;15.336;2023-05-27T04:11:40;12.50;90.40
3842;DHT22;1936;47.074;15.336;2023-05-27T04:13:44;12.60;90.40
3842;DHT22;1936;47.074;15.336;2023-05-27T04:15:48;12.70;90.30
3842;DHT22;1936;47.074;15.336;2023-05-27T04:17:53;12.70;90.30
3842;DHT22;1936;47.074;15.336;2023-05-27T04:19:56;12.80;90.30
3842;DHT22;1936;47.074;15.336;2023-05-27T04:22:01;12.90;90.00
3842;DHT22;1936;47.074;15.336;2023-05-27T04:24:05;13.00;89.50
3842;DHT22;1936;47.074;15.336;2023-05-27T04:26:09;13.00;90.00
3842;DHT22;1936;47.074;15.336;2023-05-27T04:28:14;13.10;90.20
3842;DHT22;1936;47.074;15.336;2023-05-27T04:30:18;13.30;89.80
3842;DHT22;1936;47.074;15.336;2023-05-27T04:32:23;13.50;89.20
3842;DHT22;1936;47.074;15.336;2023-05-27T04:34:27;13.60;88.90
3842;DHT22;1936;47.074;15.336;2023-05-27T04:36:30;13.80;88.10
3842;DHT22;1936;47.074;15.336;2023-05-27T04:38:35;14.10;87.00
3842;DHT22;1936;47.074;15.336;2023-05-27T04:40:39;14.20;86.90
3842;DHT22;1936;47.074;15.336;2023-05-27T04:42:44;14.20;86.90
3842;DHT22;1936;47.074;15.336;2023-05-27T04:44:47;14.40;87.00
3842;DHT22;1936;47.074;15.336;2023-05-27T04:46:52;14.60;85.60
3842;DHT22;1936;47.074;15.336;2023-05-27T04:48:57;14.60;85.00
3842;DHT22;1936;47.074;15.336;2023-05-27T04:51:00;14.80;82.50
3842;DHT22;1936;47.074;15.336;2023-05-27T04:53:03;15.10;79.10
3842;DHT22;1936;47.074;15.336;2023-05-27T04:55:09;15.40;77.70
3842;DHT22;1936;47.074;15.336;2023-05-27T04:57:13;15.60;77.10
3842;DHT22;1936;47.074;15.336;2023-05-27T04:59:21;15.80;74.90
3842;DHT22;1936;47.074;15.336;2023-05-27T05:01:31;16.00;74.10
3842;DHT22;1936;47.074;15.336;2023-05-27T05:03:51;16.10;71.90
3842;DHT22;1936;47.074;15.336;2023-05-27T05:06:05;16.20;72.20
3842;DHT22;1936;47.074;15.336;2023-05-27T05:08:09;16.40;72.10
3842;DHT22;1936;47.074;15.336;2023-05-27T05:10:12;16.50;72.50
3842;DHT22;1936;47.074;15.336;2023-05-27T05:12:15;16.50;72.30
3842;DHT22;1936;47.074;15.336;2023-05-27T05:14:20;16.70;70.50
3842;DHT22;1936;47.074;15.336;2023-05-27T05:16:23;16.70;69.10
3842;DHT22;1936;47.074;15.336;2023-05-27T05:18:27;16.80;69.60
3842;DHT22;1936;47.074;15.336;2023-05-27T05:20:31;16.90;67.80
3842;DHT22;1936;47.074;15.336;2023-05-27T05:22:34;16.90;67.90
3842;DHT22;1936;47.074;15.336;2023-05-27T05:24:38;16.90;68.00
3842;DHT22;1936;47.074;15.336;2023-05-27T05:26:41;17.00;68.80
3842;DHT22;1936;47.074;15.336;2023-05-27T05:28:46;17.00;66.40
3842;DHT22;1936;47.074;15.336;2023-05-27T05:30:50;17.20;67.60
3842;DHT22;1936;47.074;15.336;2023-05-27T05:32:54;17.30;67.40
3842;DHT22;1936;47.074;15.336;2023-05-27T05:34:58;17.40;66.40
3842;DHT22;1936;47.074;15.336;2023-05-27T05:37:01;17.60;65.50
3842;DHT22;1936;47.074;15.336;2023-05-27T05:39:04;17.80;65.40
3842;DHT22;1936;47.074;15.336;2023-05-27T05:41:08;18.00;65.40
3842;DHT22;1936;47.074;15.336;2023-05-27T05:43:11;18.20;64.50
3842;DHT22;1936;47.074;15.336;2023-05-27T05:45:14;18.20;62.90
3842;DHT22;1936;47.074;15.336;2023-05-27T05:47:19;18.00;62.70
3842;DHT22;1936;47.074;15.336;2023-05-27T05:49:22;18.10;63.50
3842;DHT22;1936;47.074;15.336;2023-05-27T05:51:26;18.20;63.10
3842;DHT22;1936;47.074;15.336;2023-05-27T05:53:29;18.00;62.10
3842;DHT22;1936;47.074;15.336;2023-05-27T05:55:33;18.00;62.30
3842;DHT22;1936;47.074;15.336;2023-05-27T05:57:37;18.10;62.70
3842;DHT22;1936;47.074;15.336;2023-05-27T05:59:41;18.10;60.90
3842;DHT22;1936;47.074;15.336;2023-05-27T06:01:44;18.20;62.40
3842;DHT22;1936;47.074;15.336;2023-05-27T06:03:48;18.30;61.70
3842;DHT22;1936;47.074;15.336;2023-05-27T06:05:52;18.50;60.00
3842;DHT22;1936;47.074;15.336;2023-05-27T06:07:56;18.50;59.20
3842;DHT22;1936;47.074;15.336;2023-05-27T06:09:59;18.50;59.80
3842;DHT22;1936;47.074;15.336;2023-05-27T06:12:03;18.80;60.30
3842;DHT22;1936;47.074;15.336;2023-05-27T06:14:07;18.90;58.00
3842;DHT22;1936;47.074;15.336;2023-05-27T06:16:10;19.00;58.10
3842;DHT22;1936;47.074;15.336;2023-05-27T06:18:14;19.20;57.40
3842;DHT22;1936;47.074;15.336;2023-05-27T06:20:20;19.50;57.90
3842;DHT22;1936;47.074;15.336;2023-05-27T06:22:24;19.80;55.50
3842;DHT22;1936;47.074;15.336;2023-05-27T06:24:28;20.10;56.00
3842;DHT22;1936;47.074;15.336;2023-05-27T06:26:31;20.20;55.50
3842;DHT22;1936;47.074;15.336;2023-05-27T06:28:34;20.10;55.40
3842;DHT22;1936;47.074;15.336;2023-05-27T06:30:38;20.20;54.30
3842;DHT22;1936;47.074;15.336;2023-05-27T06:32:41;20.50;56.20
3842;DHT22;1936;47.074;15.336;2023-05-27T06:34:46;20.30;53.60
3842;DHT22;1936;47.074;15.336;2023-05-27T06:36:50;20.40;52.90
3842;DHT22;1936;47.074;15.336;2023-05-27T06:38:54;20.50;53.50
3842;DHT22;1936;47.074;15.336;2023-05-27T06:40:57;20.60;53.40
3842;DHT22;1936;47.074;15.336;2023-05-27T06:43:00;20.90;53.00
3842;DHT22;1936;47.074;15.336;2023-05-27T06:45:05;20.80;51.60
3842;DHT22;1936;47.074;15.336;2023-05-27T06:47:09;21.00;51.30
3842;DHT22;1936;47.074;15.336;2023-05-27T06:49:13;21.40;51.50
3842;DHT22;1936;47.074;15.336;2023-05-27T06:51:16;21.50;51.90
3842;DHT22;1936;47.074;15.336;2023-05-27T06:53:21;21.90;49.30
3842;DHT22;1936;47.074;15.336;2023-05-27T06:55:25;21.90;47.70
3842;DHT22;1936;47.074;15.336;2023-05-27T06:57:28;22.00;50.40
3842;DHT22;1936;47.074;15.336;2023-05-27T06:59:32;22.50;49.30
3842;DHT22;1936;47.074;15.336;2023-05-27T07:01:35;23.00;47.60
3842;DHT22;1936;47.074;15.336;2023-05-27T07:03:40;23.00;46.90
3842;DHT22;1936;47.074;15.336;2023-05-27T07:05:44;23.40;49.00
3842;DHT22;1936;47.074;15.336;2023-05-27T07:07:47;23.80;44.10
3842;DHT22;1936;47.074;15.336;2023-05-27T07:09:52;24.00;46.20
3842;DHT22;1936;47.074;15.336;2023-05-27T07:11:56;23.50;44.00
3842;DHT22;1936;47.074;15.336;2023-05-27T07:13:59;23.70;46.20
3842;DHT22;1936;47.074;15.336;2023-05-27T07:16:03;23.40;43.20
3842;DHT22;1936;47.074;15.336;2023-05-27T07:18:07;23.70;44.20
3842;DHT22;1936;47.074;15.336;2023-05-27T07:20:11;24.20;44.60
3842;DHT22;1936;47.074;15.336;2023-05-27T07:22:15;24.70;41.80
3842;DHT22;1936;47.074;15.336;2023-05-27T07:24:18;24.50;42.00
3842;DHT22;1936;47.074;15.336;2023-05-27T07:26:23;24.60;42.30
3842;DHT22;1936;47.074;15.336;2023-05-27T07:28:27;25.40;41.00
3842;DHT22;1936;47.074;15.336;2023-05-27T07:30:30;26.00;41.30
3842;DHT22;1936;47.074;15.336;2023-05-27T07:32:34;26.10;40.00
3842;DHT22;1936;47.074;15.336;2023-05-27T07:34:37;26.10;38.00
3842;DHT22;1936;47.074;15.336;2023-05-27T07:36:41;27.00;37.60
3842;DHT22;1936;47.074;15.336;2023-05-27T07:38:45;27.10;37.20
3842;DHT22;1936;47.074;15.336;2023-05-27T07:40:48;27.50;37.90
3842;DHT22;1936;47.074;15.336;2023-05-27T07:42:54;27.30;33.70
3842;DHT22;1936;47.074;15.336;2023-05-27T07:44:57;28.80;39.10
3842;DHT22;1936;47.074;15.336;2023-05-27T07:47:01;28.80;35.20
3842;DHT22;1936;47.074;15.336;2023-05-27T07:51:08;30.90;24.80
3842;DHT22;1936;47.074;15.336;2023-05-27T07:53:12;30.00;24.70
3842;DHT22;1936;47.074;15.336;2023-05-27T07:55:15;29.30;27.30
3842;DHT22;1936;47.074;15.336;2023-05-27T07:57:18;29.70;27.60
3842;DHT22;1936;47.074;15.336;2023-05-27T07:59:23;30.30;29.90
3842;DHT22;1936;47.074;15.336;2023-05-27T08:01:27;29.50;25.60
3842;DHT22;1936;47.074;15.336;2023-05-27T08:03:34;30.40;28.00
3842;DHT22;1936;47.074;15.336;2023-05-27T08:05:38;30.90;27.80
3842;DHT22;1936;47.074;15.336;2023-05-27T08:07:41;32.10;25.70
3842;DHT22;1936;47.074;15.336;2023-05-27T08:09:45;32.90;25.90
3842;DHT22;1936;47.074;15.336;2023-05-27T08:11:48;33.50;23.90
3842;DHT22;1936;47.074;15.336;2023-05-27T08:13:52;33.50;26.40
3842;DHT22;1936;47.074;15.336;2023-05-27T08:18:00;34.10;23.10
3842;DHT22;1936;47.074;15.336;2023-05-27T08:20:05;34.20;24.10
3842;DHT22;1936;47.074;15.336;2023-05-27T08:22:10;34.80;21.40
3842;DHT22;1936;47.074;15.336;2023-05-27T08:24:14;34.90;23.00
3842;DHT22;1936;47.074;15.336;2023-05-27T08:26:18;35.10;22.60
3842;DHT22;1936;47.074;15.336;2023-05-27T08:28:22;34.00;25.90
3842;DHT22;1936;47.074;15.336;2023-05-27T08:30:25;34.40;27.10
3842;DHT22;1936;47.074;15.336;2023-05-27T08:32:31;34.90;23.20
3842;DHT22;1936;47.074;15.336;2023-05-27T08:34:35;34.80;22.50
3842;DHT22;1936;47.074;15.336;2023-05-27T08:36:38;35.10;25.00
3842;DHT22;1936;47.074;15.336;2023-05-27T08:38:42;35.30;24.70
3842;DHT22;1936;47.074;15.336;2023-05-27T08:40:46;34.90;28.80
3842;DHT22;1936;47.074;15.336;2023-05-27T08:42:54;34.60;26.60
3842;DHT22;1936;47.074;15.336;2023-05-27T08:44:59;34.70;26.60
3842;DHT22;1936;47.074;15.336;2023-05-27T08:47:03;34.50;29.60
3842;DHT22;1936;47.074;15.336;2023-05-27T08:49:08;34.00;25.50
3842;DHT22;1936;47.074;15.336;2023-05-27T08:51:12;34.00;24.00
3842;DHT22;1936;47.074;15.336;2023-05-27T08:53:17;34.00;23.10
3842;DHT22;1936;47.074;15.336;2023-05-27T08:55:22;33.50;60.50
3842;DHT22;1936;47.074;15.336;2023-05-27T08:57:28;31.70;21.80
3842;DHT22;1936;47.074;15.336;2023-05-27T08:59:33;32.30;24.20
3842;DHT22;1936;47.074;15.336;2023-05-27T09:01:37;33.70;27.40
3842;DHT22;1936;47.074;15.336;2023-05-27T09:03:41;34.50;24.50
3842;DHT22;1936;47.074;15.336;2023-05-27T09:05:47;35.30;24.90
3842;DHT22;1936;47.074;15.336;2023-05-27T09:07:50;35.50;22.10
3842;DHT22;1936;47.074;15.336;2023-05-27T09:09:57;36.10;22.10
3842;DHT22;1936;47.074;15.336;2023-05-27T09:12:01;36.30;24.10
3842;DHT22;1936;47.074;15.336;2023-05-27T09:14:05;36.60;22.00
3842;DHT22;1936;47.074;15.336;2023-05-27T09:16:09;36.20;24.50
3842;DHT22;1936;47.074;15.336;2023-05-27T09:18:12;36.50;22.80
3842;DHT22;1936;47.074;15.336;2023-05-27T09:20:24;36.70;22.60
3842;DHT22;1936;47.074;15.336;2023-05-27T09:22:30;36.80;23.00
3842;DHT22;1936;47.074;15.336;2023-05-27T09:24:34;36.90;23.00
3842;DHT22;1936;47.074;15.336;2023-05-27T09:26:37;36.70;20.00
3842;DHT22;1936;47.074;15.336;2023-05-27T09:28:40;36.30;22.30
3842;DHT22;1936;47.074;15.336;2023-05-27T09:30:45;35.70;21.50
3842;DHT22;1936;47.074;15.336;2023-05-27T09:32:50;36.00;21.60
3842;DHT22;1936;47.074;15.336;2023-05-27T09:34:55;35.90;21.00
3842;DHT22;1936;47.074;15.336;2023-05-27T09:36:58;35.30;22.50
3842;DHT22;1936;47.074;15.336;2023-05-27T09:39:04;35.90;26.00
3842;DHT22;1936;47.074;15.336;2023-05-27T09:41:07;36.30;21.70
3842;DHT22;1936;47.074;15.336;2023-05-27T09:43:13;36.10;24.60
3842;DHT22;1936;47.074;15.336;2023-05-27T09:45:19;36.20;24.00
3842;DHT22;1936;47.074;15.336;2023-05-27T09:47:23;36.30;21.40
3842;DHT22;1936;47.074;15.336;2023-05-27T09:49:29;36.30;24.20
3842;DHT22;1936;47.074;15.336;2023-05-27T09:51:37;35.70;25.00
3842;DHT22;1936;47.074;15.336;2023-05-27T09:53:43;35.50;21.40
3842;DHT22;1936;47.074;15.336;2023-05-27T09:55:49;34.80;25.60
3842;DHT22;1936;47.074;15.336;2023-05-27T09:57:53;35.20;24.50
3842;DHT22;1936;47.074;15.336;2023-05-27T09:59:59;35.60;23.80
3842;DHT22;1936;47.074;15.336;2023-05-27T10:02:07;36.00;22.00
3842;DHT22;1936;47.074;15.336;2023-05-27T10:04:11;35.70;24.60
3842;DHT22;1936;47.074;15.336;2023-05-27T10:06:17;35.80;22.70
3842;DHT22;1936;47.074;15.336;2023-05-27T10:08:20;36.30;22.20
3842;DHT22;1936;47.074;15.336;2023-05-27T10:10:27;35.90;20.50
3842;DHT22;1936;47.074;15.336;2023-05-27T10:12:32;35.20;21.00
3842;DHT22;1936;47.074;15.336;2023-05-27T10:14:37;34.30;23.40
3842;DHT22;1936;47.074;15.336;2023-05-27T10:16:51;34.00;25.20
3842;DHT22;1936;47.074;15.336;2023-05-27T10:18:56;33.30;23.10
3842;DHT22;1936;47.074;15.336;2023-05-27T10:21:04;32.20;25.10
3842;DHT22;1936;47.074;15.336;2023-05-27T10:23:12;32.10;25.40
3842;DHT22;1936;47.074;15.336;2023-05-27T10:25:16;31.80;23.80
3842;DHT22;1936;47.074;15.336;2023-05-27T10:27:20;32.60;24.00
3842;DHT22;1936;47.074;15.336;2023-05-27T10:29:35;33.30;23.20
3842;DHT22;1936;47.074;15.336;2023-05-27T10:31:49;33.30;27.30
3842;DHT22;1936;47.074;15.336;2023-05-27T10:33:57;33.30;21.80
3842;DHT22;1936;47.074;15.336;2023-05-27T10:36:07;33.90;25.80
3842;DHT22;1936;47.074;15.336;2023-05-27T10:38:15;32.80;26.80
3842;DHT22;1936;47.074;15.336;2023-05-27T10:40:24;31.60;23.40
3842;DHT22;1936;47.074;15.336;2023-05-27T10:42:28;31.10;26.00
3842;DHT22;1936;47.074;15.336;2023-05-27T10:44:34;30.10;26.10
3842;DHT22;1936;47.074;15.336;2023-05-27T10:46:42;29.40;26.80
3842;DHT22;1936;47.074;15.336;2023-05-27T10:48:46;29.40;29.20
3842;DHT22;1936;47.074;15.336;2023-05-27T10:50:50;30.80;28.20
3842;DHT22;1936;47.074;15.336;2023-05-27T10:52:55;32.20;27.40
3842;DHT22;1936;47.074;15.336;2023-05-27T10:55:00;33.10;26.30
3842;DHT22;1936;47.074;15.336;2023-05-27T10:57:05;33.90;26.00
3842;DHT22;1936;47.074;15.336;2023-05-27T10:59:10;34.10;23.40
3842;DHT22;1936;47.074;15.336;2023-05-27T11:01:24;33.60;27.10
3842;DHT22;1936;47.074;15.336;2023-05-27T11:03:32;33.20;24.90
3842;DHT22;1936;47.074;15.336;2023-05-27T11:05:36;32.00;23.60
3842;DHT22;1936;47.074;15.336;2023-05-27T11:07:40;32.90;27.70
3842;DHT22;1936;47.074;15.336;2023-05-27T11:09:44;33.20;23.50
3842;DHT22;1936;47.074;15.336;2023-05-27T11:11:48;32.60;23.70
3842;DHT22;1936;47.074;15.336;2023-05-27T11:13:51;32.20;23.60
3842;DHT22;1936;47.074;15.336;2023-05-27T11:15:57;32.60;28.40
3842;DHT22;1936;47.074;15.336;2023-05-27T11:18:02;32.50;26.80
3842;DHT22;1936;47.074;15.336;2023-05-27T11:20:06;31.80;24.80
3842;DHT22;1936;47.074;15.336;2023-05-27T11:22:11;31.60;27.50
3842;DHT22;1936;47.074;15.336;2023-05-27T11:24:15;31.30;29.90
3842;DHT22;1936;47.074;15.336;2023-05-27T11:26:21;31.30;27.80
3842;DHT22;1936;47.074;15.336;2023-05-27T11:28:24;31.30;27.10
3842;DHT22;1936;47.074;15.336;2023-05-27T11:30:28;30.90;26.30
3842;DHT22;1936;47.074;15.336;2023-05-27T11:32:33;30.10;28.30
3842;DHT22;1936;47.074;15.336;2023-05-27T11:34:38;29.80;33.30
3842;DHT22;1936;47.074;15.336;2023-05-27T11:36:44;29.80;29.10
3842;DHT22;1936;47.074;15.336;2023-05-27T11:38:52;29.40;33.10
3842;DHT22;1936;47.074;15.336;2023-05-27T11:41:06;29.50;29.30
3842;DHT22;1936;47.074;15.336;2023-05-27T11:43:12;28.60;29.70
3842;DHT22;1936;47.074;15.336;2023-05-27T11:45:20;28.60;31.40
3842;DHT22;1936;47.074;15.336;2023-05-27T11:47:25;28.40;32.80
3842;DHT22;1936;47.074;15.336;2023-05-27T11:49:29;28.20;34.60
3842;DHT22;1936;47.074;15.336;2023-05-27T11:51:37;28.50;32.10
3842;DHT22;1936;47.074;15.336;2023-05-27T11:53:45;28.90;33.30
3842;DHT22;1936;47.074;15.336;2023-05-27T11:55:48;29.30;29.10
3842;DHT22;1936;47.074;15.336;2023-05-27T11:57:52;29.80;35.60
3842;DHT22;1936;47.074;15.336;2023-05-27T11:59:56;30.00;31.00
3842;DHT22;1936;47.074;15.336;2023-05-27T12:01:59;29.80;32.20
3842;DHT22;1936;47.074;15.336;2023-05-27T12:04:03;30.20;29.40
3842;DHT22;1936;47.074;15.336;2023-05-27T12:06:06;30.60;29.00
3842;DHT22;1936;47.074;15.336;2023-05-27T12:08:12;30.80;30.90
3842;DHT22;1936;47.074;15.336;2023-05-27T12:10:15;30.30;32.10
3842;DHT22;1936;47.074;15.336;2023-05-27T12:12:19;29.40;30.30
3842;DHT22;1936;47.074;15.336;2023-05-27T12:14:23;29.50;32.00
3842;DHT22;1936;47.074;15.336;2023-05-27T12:16:26;29.40;30.00
3842;DHT22;1936;47.074;15.336;2023-05-27T12:18:30;29.60;28.90
3842;DHT22;1936;47.074;15.336;2023-05-27T12:20:33;29.70;29.80
3842;DHT22;1936;47.074;15.336;2023-05-27T12:22:37;29.60;29.80
3842;DHT22;1936;47.074;15.336;2023-05-27T12:24:42;29.00;31.10
3842;DHT22;1936;47.074;15.336;2023-05-27T12:26:46;28.70;31.30
3842;DHT22;1936;47.074;15.336;2023-05-27T12:28:49;29.00;31.30
3842;DHT22;1936;47.074;15.336;2023-05-27T12:30:53;29.20;31.70
3842;DHT22;1936;47.074;15.336;2023-05-27T12:32:56;28.60;33.60
3842;DHT22;1936;47.074;15.336;2023-05-27T12:35:01;28.40;33.40
3842;DHT22;1936;47.074;15.336;2023-05-27T12:37:04;28.90;36.00
3842;DHT22;1936;47.074;15.336;2023-05-27T12:39:08;28.80;29.90
3842;DHT22;1936;47.074;15.336;2023-05-27T12:41:13;28.90;30.10
3842;DHT22;1936;47.074;15.336;2023-05-27T12:43:17;28.40;29.30
3842;DHT22;1936;47.074;15.336;2023-05-27T12:45:25;28.30;31.20
3842;DHT22;1936;47.074;15.336;2023-05-27T12:47:29;28.20;28.60
3842;DHT22;1936;47.074;15.336;2023-05-27T12:49:32;28.10;29.50
3842;DHT22;1936;47.074;15.336;2023-05-27T12:51:36;28.00;29.90
3842;DHT22;1936;47.074;15.336;2023-05-27T12:53:40;27.40;36.20
3842;DHT22;1936;47.074;15.336;2023-05-27T12:55:43;27.40;34.10
3842;DHT22;1936;47.074;15.336;2023-05-27T12:57:49;27.20;37.70
3842;DHT22;1936;47.074;15.336;2023-05-27T12:59:53;27.10;37.10
3842;DHT22;1936;47.074;15.336;2023-05-27T13:01:58;27.30;32.60
3842;DHT22;1936;47.074;15.336;2023-05-27T13:04:02;27.80;36.60
3842;DHT22;1936;47.074;15.336;2023-05-27T13:06:05;28.30;33.10
3842;DHT22;1936;47.074;15.336;2023-05-27T13:08:09;28.60;37.00
3842;DHT22;1936;47.074;15.336;2023-05-27T13:10:13;28.90;30.10
3842;DHT22;1936;47.074;15.336;2023-05-27T13:12:16;29.00;30.00
3842;DHT22;1936;47.074;15.336;2023-05-27T13:14:21;29.30;30.90
3842;DHT22;1936;47.074;15.336;2023-05-27T13:16:24;28.80;30.00
3842;DHT22;1936;47.074;15.336;2023-05-27T13:18:28;28.70;31.10
3842;DHT22;1936;47.074;15.336;2023-05-27T13:20:31;28.60;31.20
3842;DHT22;1936;47.074;15.336;2023-05-27T13:22:34;28.80;32.00
3842;DHT22;1936;47.074;15.336;2023-05-27T13:24:38;28.70;31.90